Time;durP1;ratioP1;P1;durP2;ratioP2;P2;SDS_P1;SDS_P2;PMS_P1;PMS_P2;Temp;Humidity;BMP_temperature;BMP_pressure;BME280_temperature;BME280_humidity;BME280_pressure;Samples;Min_cycle;Max_cycle;Signal;HPM_P1;HPM_P2
2022/07/23 00:02:02;;;;;;;6.85;2.97;;;14.80;99.90;;;;;;5051825;28;20048;-80
2022/07/23 00:04:27;;;;;;;6.70;2.50;;;14.80;99.90;;;;;;5054022;28;20134;-81
2022/07/23 00:06:53;;;;;;;7.38;2.75;;;14.80;99.90;;;;;;5067967;28;20044;-80
2022/07/23 00:09:18;;;;;;;6.40;3.00;;;14.80;99.90;;;;;;5043705;28;20052;-80
2022/07/23 00:11:44;;;;;;;6.63;2.70;;;14.80;99.90;;;;;;5063528;28;20041;-81
2022/07/23 00:14:09;;;;;;;5.47;2.67;;;14.80;99.90;;;;;;5032916;28;20094;-81
2022/07/23 00:16:35;;;;;;;7.63;3.03;;;14.90;99.90;;;;;;5067068;28;20074;-80
2022/07/23 00:19:02;;;;;;;5.38;2.42;;;14.80;99.90;;;;;;5068209;28;20476;-80
2022/07/23 00:21:28;;;;;;;5.10;2.88;;;15.00;99.90;;;;;;5054207;28;20048;-80
2022/07/23 00:23:53;;;;;;;8.43;3.03;;;14.80;99.90;;;;;;5062455;28;20036;-81
2022/07/23 00:26:19;;;;;;;6.40;3.20;;;14.80;99.90;;;;;;5080270;28;20124;-80
2022/07/23 00:28:45;;;;;;;6.95;2.92;;;14.70;99.90;;;;;;5056224;28;20048;-80
2022/07/23 00:31:10;;;;;;;5.75;3.05;;;14.70;99.90;;;;;;5055872;28;20391;-80
2022/07/23 00:33:37;;;;;;;6.28;2.78;;;14.60;99.90;;;;;;5067082;28;20056;-80
2022/07/23 00:36:02;;;;;;;5.32;2.80;;;14.60;99.90;;;;;;5057442;28;20049;-80
2022/07/23 00:38:28;;;;;;;5.60;2.60;;;14.50;99.90;;;;;;5035609;28;20055;-80
2022/07/23 00:40:54;;;;;;;5.22;2.33;;;14.50;99.90;;;;;;5041121;28;20045;-80
2022/07/23 00:43:23;;;;;;;6.10;2.50;;;14.40;99.90;;;;;;5059616;28;20128;-81
2022/07/23 00:45:49;;;;;;;5.45;2.35;;;14.30;99.90;;;;;;5073115;28;20039;-81
2022/07/23 00:48:15;;;;;;;6.35;2.65;;;14.30;99.90;;;;;;5073831;28;20044;-80
2022/07/23 00:50:41;;;;;;;5.65;2.40;;;14.20;99.90;;;;;;5061306;28;20556;-80
2022/07/23 00:53:08;;;;;;;7.57;2.35;;;14.20;99.90;;;;;;5070926;28;20051;-80
2022/07/23 00:55:34;;;;;;;9.50;3.05;;;14.20;99.90;;;;;;5077443;28;20032;-80
2022/07/23 00:58:00;;;;;;;7.30;3.65;;;14.20;99.90;;;;;;5066285;28;20040;-80
2022/07/23 01:00:26;;;;;;;5.22;3.03;;;14.20;99.90;;;;;;5079141;28;20043;-80
2022/07/23 01:02:52;;;;;;;5.55;2.88;;;14.20;99.90;;;;;;5060713;28;20053;-80
2022/07/23 01:05:21;;;;;;;5.70;2.70;;;14.20;99.90;;;;;;5034940;28;20041;-80
2022/07/23 01:07:50;;;;;;;6.28;2.78;;;14.20;99.90;;;;;;5081153;28;20044;-80
2022/07/23 01:10:31;;;;;;;7.35;2.90;;;14.20;99.90;;;;;;5071999;28;20052;-80
2022/07/23 01:13:02;;;;;;;7.97;3.05;;;14.10;99.90;;;;;;5062399;28;20041;-80
2022/07/23 01:15:28;;;;;;;7.43;3.15;;;14.10;99.90;;;;;;5069533;28;20098;-80
2022/07/23 01:17:54;;;;;;;6.60;2.97;;;14.10;99.90;;;;;;5070448;28;20049;-80
2022/07/23 01:20:20;;;;;;;6.82;3.30;;;14.10;99.90;;;;;;5078830;28;20055;-80
2022/07/23 01:22:46;;;;;;;7.28;3.13;;;14.10;99.90;;;;;;5056522;28;20040;-81
2022/07/23 01:25:12;;;;;;;7.80;3.30;;;14.10;99.90;;;;;;5046317;28;20072;-80
2022/07/23 01:27:37;;;;;;;6.78;3.90;;;14.10;99.90;;;;;;5057079;28;20033;-81
2022/07/23 01:30:04;;;;;;;6.07;3.33;;;14.10;99.90;;;;;;5062127;28;20394;-80
2022/07/23 01:32:29;;;;;;;9.85;3.67;;;14.10;99.90;;;;;;5071981;28;20045;-80
2022/07/23 01:34:55;;;;;;;8.75;4.15;;;14.30;99.90;;;;;;5053559;28;20076;-81
2022/07/23 01:37:20;;;;;;;6.63;3.35;;;13.90;99.90;;;;;;5079085;28;20391;-80
2022/07/23 01:39:46;;;;;;;6.88;3.65;;;13.90;99.90;;;;;;5059217;28;20807;-80
2022/07/23 01:42:12;;;;;;;5.38;3.35;;;13.80;99.90;;;;;;5062634;28;20097;-80
2022/07/23 01:44:37;;;;;;;6.82;3.60;;;13.80;99.90;;;;;;5051556;28;20079;-80
2022/07/23 01:47:03;;;;;;;5.97;3.70;;;13.70;99.90;;;;;;5056168;28;20106;-80
2022/07/23 01:49:28;;;;;;;6.97;3.50;;;13.70;99.90;;;;;;5066759;28;20123;-80
2022/07/23 01:52:00;;;;;;;5.55;3.53;;;13.60;99.90;;;;;;5055350;28;20430;-80
2022/07/23 01:54:30;;;;;;;7.45;3.83;;;13.60;99.90;;;;;;5057796;28;20149;-81
2022/07/23 01:56:57;;;;;;;8.65;4.00;;;13.50;99.90;;;;;;5077740;28;20049;-80
2022/07/23 01:59:23;;;;;;;6.47;3.70;;;13.40;99.90;;;;;;5047872;28;20057;-80
2022/07/23 02:01:52;;;;;;;12.98;3.58;;;13.40;99.90;;;;;;5062643;28;20106;-80
2022/07/23 02:04:19;;;;;;;6.95;3.75;;;13.50;99.90;;;;;;5054067;28;20052;-80
2022/07/23 02:06:44;;;;;;;6.03;3.22;;;13.30;99.90;;;;;;5073911;28;20057;-80
2022/07/23 02:09:10;;;;;;;7.90;3.45;;;13.20;99.90;;;;;;5050975;28;20125;-81
2022/07/23 02:11:36;;;;;;;6.90;3.70;;;13.20;99.90;;;;;;5069739;28;20039;-80
2022/07/23 02:14:02;;;;;;;7.28;3.90;;;13.10;99.90;;;;;;5064856;28;20074;-80
2022/07/23 02:16:27;;;;;;;7.22;3.30;;;13.10;99.90;;;;;;5045006;28;20067;-80
2022/07/23 02:18:53;;;;;;;7.28;3.67;;;13.00;99.90;;;;;;5065028;28;20040;-81
2022/07/23 02:21:18;;;;;;;8.23;3.83;;;13.00;99.90;;;;;;5056266;28;20045;-80
2022/07/23 02:23:44;;;;;;;6.75;3.85;;;13.00;99.90;;;;;;5071891;28;20044;-80
2022/07/23 02:26:09;;;;;;;6.10;3.47;;;12.90;99.90;;;;;;5055887;28;20037;-80
2022/07/23 02:28:35;;;;;;;7.82;3.25;;;12.90;99.90;;;;;;5064534;28;20048;-80
2022/07/23 02:31:01;;;;;;;6.93;3.60;;;12.80;99.90;;;;;;5055495;28;20447;-80
2022/07/23 02:33:26;;;;;;;4.97;3.35;;;12.80;99.90;;;;;;5085516;28;20066;-80
2022/07/23 02:35:52;;;;;;;8.50;4.05;;;12.80;99.90;;;;;;5064559;28;20040;-80
2022/07/23 02:38:17;;;;;;;7.05;3.65;;;12.80;99.90;;;;;;5050979;28;20056;-80
2022/07/23 02:40:43;;;;;;;6.78;3.90;;;12.80;99.90;;;;;;5059006;28;20487;-80
2022/07/23 02:43:08;;;;;;;9.82;3.75;;;12.80;99.90;;;;;;5061192;28;20051;-81
2022/07/23 02:45:34;;;;;;;6.82;4.10;;;12.80;99.90;;;;;;5054814;28;20537;-80
2022/07/23 02:48:00;;;;;;;6.35;3.80;;;12.80;99.90;;;;;;5055587;28;20048;-80
2022/07/23 02:50:25;;;;;;;6.13;3.10;;;12.80;99.90;;;;;;5074696;28;20051;-80
2022/07/23 02:52:51;;;;;;;7.60;3.72;;;12.80;99.90;;;;;;5049248;28;20476;-80
2022/07/23 02:55:17;;;;;;;7.28;4.18;;;12.80;99.90;;;;;;5034598;28;20102;-80
2022/07/23 02:57:43;;;;;;;9.70;3.97;;;12.80;99.90;;;;;;5070146;28;20044;-80
2022/07/23 03:00:09;;;;;;;8.43;4.53;;;12.70;99.90;;;;;;5053093;28;20049;-80
2022/07/23 03:02:35;;;;;;;8.35;3.97;;;12.70;99.90;;;;;;5041361;28;20074;-80
2022/07/23 03:05:00;;;;;;;10.15;4.05;;;12.70;99.90;;;;;;5071801;28;20041;-80
2022/07/23 03:07:26;;;;;;;8.57;4.75;;;12.70;99.90;;;;;;5064496;28;20396;-80
2022/07/23 03:09:52;;;;;;;8.60;3.88;;;12.70;99.90;;;;;;5055720;28;20053;-80
2022/07/23 03:12:17;;;;;;;6.68;4.00;;;12.70;99.90;;;;;;5078656;28;20044;-80
2022/07/23 03:14:43;;;;;;;7.47;4.28;;;12.70;99.90;;;;;;5036204;28;20373;-80
2022/07/23 03:17:09;;;;;;;6.43;4.22;;;12.70;99.90;;;;;;5066371;28;20081;-80
2022/07/23 03:19:34;;;;;;;10.07;4.47;;;12.60;99.90;;;;;;5067919;28;20036;-80
2022/07/23 03:22:00;;;;;;;6.85;3.90;;;12.60;99.90;;;;;;5080756;28;20068;-80
2022/07/23 03:24:53;;;;;;;8.50;4.57;;;12.60;99.90;;;;;;5067920;28;20048;-81
2022/07/23 03:27:11;;;;;;;10.75;4.60;;;13.10;99.90;;;;;;5055278;28;20055;-80
2022/07/23 03:29:37;;;;;;;9.57;4.47;;;12.60;99.90;;;;;;5075348;28;20047;-80
2022/07/23 03:32:03;;;;;;;8.93;5.05;;;12.50;99.90;;;;;;5057413;28;20460;-80
2022/07/23 03:34:29;;;;;;;10.52;4.78;;;12.50;99.90;;;;;;5068531;28;20048;-80
2022/07/23 03:36:54;;;;;;;9.73;5.38;;;12.50;99.90;;;;;;5072003;28;20044;-80
2022/07/23 03:39:20;;;;;;;9.23;5.00;;;12.60;99.90;;;;;;5054731;28;20041;-81
2022/07/23 03:41:45;;;;;;;7.13;4.65;;;12.60;99.90;;;;;;5067561;28;20044;-80
2022/07/23 03:44:11;;;;;;;7.70;4.72;;;12.80;99.90;;;;;;5050193;28;20048;-80
2022/07/23 03:46:37;;;;;;;9.18;5.00;;;12.80;99.90;;;;;;5052706;28;20121;-80
2022/07/23 03:49:02;;;;;;;9.88;4.93;;;12.60;99.90;;;;;;5061945;28;20040;-80
2022/07/23 03:51:28;;;;;;;8.57;4.65;;;12.60;99.90;;;;;;5084102;28;20040;-81
2022/07/23 03:53:55;;;;;;;7.97;4.88;;;12.50;99.90;;;;;;5043858;28;20511;-80
2022/07/23 03:56:21;;;;;;;6.95;4.88;;;12.50;99.90;;;;;;5074699;28;20081;-81
2022/07/23 03:58:47;;;;;;;8.57;4.50;;;12.50;99.90;;;;;;5063689;28;20037;-80
2022/07/23 04:01:12;;;;;;;9.20;4.93;;;12.50;99.90;;;;;;5053162;28;20047;-80
2022/07/23 04:03:38;;;;;;;8.75;4.60;;;12.50;99.90;;;;;;5057719;28;20577;-81
2022/07/23 04:06:05;;;;;;;9.85;4.35;;;12.40;99.90;;;;;;5050170;28;20040;-81
2022/07/23 04:08:30;;;;;;;9.57;4.88;;;12.50;99.90;;;;;;5062409;28;20125;-81
2022/07/23 04:10:56;;;;;;;6.75;3.97;;;12.50;99.90;;;;;;5064453;28;20135;-81
2022/07/23 04:13:21;;;;;;;9.30;4.93;;;12.50;99.90;;;;;;5055512;28;20045;-80
2022/07/23 04:15:47;;;;;;;9.38;4.28;;;12.50;99.90;;;;;;5053565;28;20048;-81
2022/07/23 04:18:13;;;;;;;9.00;4.93;;;12.50;99.90;;;;;;5040782;28;20048;-81
2022/07/23 04:20:38;;;;;;;8.10;4.45;;;12.40;99.90;;;;;;5056635;28;20045;-80
2022/07/23 04:23:04;;;;;;;7.28;4.65;;;12.50;99.90;;;;;;5073317;28;20119;-81
2022/07/23 04:25:29;;;;;;;9.10;4.15;;;12.50;99.90;;;;;;5053484;28;20090;-81
2022/07/23 04:27:55;;;;;;;8.38;4.28;;;12.50;99.90;;;;;;5056583;28;20096;-80
2022/07/23 04:30:21;;;;;;;8.75;4.72;;;12.50;99.90;;;;;;5053560;28;20029;-80
2022/07/23 04:32:46;;;;;;;8.40;4.55;;;12.50;99.90;;;;;;5058150;28;20441;-81
2022/07/23 04:35:12;;;;;;;8.10;3.38;;;12.60;99.90;;;;;;5058148;28;20056;-80
2022/07/23 04:37:37;;;;;;;8.48;4.40;;;12.60;99.90;;;;;;5062900;28;20083;-81
2022/07/23 04:40:04;;;;;;;9.98;4.13;;;12.60;99.90;;;;;;5061127;28;20044;-81
2022/07/23 04:42:29;;;;;;;6.15;3.63;;;12.70;99.90;;;;;;5072128;28;20060;-81
2022/07/23 04:44:55;;;;;;;10.30;4.68;;;12.70;99.90;;;;;;5054055;28;20104;-81
2022/07/23 04:47:20;;;;;;;7.45;4.55;;;12.80;99.90;;;;;;5064098;28;20036;-81
2022/07/23 04:49:46;;;;;;;8.30;4.50;;;12.70;99.90;;;;;;5071232;28;20131;-80
2022/07/23 04:52:12;;;;;;;7.15;4.18;;;12.80;99.90;;;;;;5065161;28;20472;-81
2022/07/23 04:54:37;;;;;;;8.55;4.50;;;12.80;99.90;;;;;;5049011;28;20051;-81
2022/07/23 04:57:03;;;;;;;7.95;3.83;;;12.90;99.90;;;;;;5068099;28;20087;-80
2022/07/23 04:59:28;;;;;;;9.18;4.72;;;12.90;99.90;;;;;;5060310;28;20059;-81
2022/07/23 05:01:54;;;;;;;6.85;3.97;;;13.00;99.90;;;;;;5057225;28;20040;-80
2022/07/23 05:04:19;;;;;;;10.68;4.13;;;13.00;99.90;;;;;;5052972;28;20564;-81
2022/07/23 05:06:45;;;;;;;8.23;4.07;;;13.10;99.90;;;;;;5060417;28;20067;-80
2022/07/23 05:09:11;;;;;;;9.13;4.13;;;13.10;99.90;;;;;;5064257;28;20545;-80
2022/07/23 05:11:36;;;;;;;8.10;3.90;;;13.20;99.90;;;;;;5077114;28;20067;-81
2022/07/23 05:14:02;;;;;;;8.45;4.20;;;13.20;99.90;;;;;;5061418;28;20427;-81
2022/07/23 05:16:28;;;;;;;8.40;4.20;;;13.20;99.90;;;;;;5069815;28;20481;-81
2022/07/23 05:18:53;;;;;;;8.05;4.13;;;13.30;99.90;;;;;;5062001;28;20036;-80
2022/07/23 05:21:19;;;;;;;7.13;3.63;;;13.50;99.90;;;;;;5083748;28;20109;-81
2022/07/23 05:23:45;;;;;;;6.55;3.80;;;13.40;99.90;;;;;;5089404;28;20051;-81
2022/07/23 05:26:11;;;;;;;9.50;4.45;;;13.50;99.90;;;;;;5065999;28;20040;-80
2022/07/23 05:28:36;;;;;;;5.97;2.60;;;13.50;99.90;;;;;;5059783;28;20530;-81
2022/07/23 05:31:03;;;;;;;8.70;4.57;;;13.50;99.90;;;;;;5052055;28;20041;-81
2022/07/23 05:33:30;;;;;;;7.28;3.90;;;13.60;99.90;;;;;;5047646;28;20056;-81
2022/07/23 05:36:01;;;;;;;7.75;4.22;;;13.60;99.90;;;;;;5072715;28;20047;-81
2022/07/23 05:38:27;;;;;;;9.02;3.67;;;13.60;99.90;;;;;;5079336;28;20036;-81
2022/07/23 05:40:52;;;;;;;7.93;3.97;;;13.60;99.90;;;;;;5078777;28;20036;-81
2022/07/23 05:43:18;;;;;;;7.43;4.28;;;13.60;99.90;;;;;;5081896;28;20050;-81
2022/07/23 05:45:43;;;;;;;8.52;4.35;;;13.70;99.90;;;;;;5054592;28;20055;-81
2022/07/23 05:48:09;;;;;;;7.35;3.65;;;13.60;99.90;;;;;;5058478;28;20055;-81
2022/07/23 05:50:35;;;;;;;8.48;3.90;;;13.60;99.90;;;;;;5086949;28;20036;-81
2022/07/23 05:53:00;;;;;;;6.50;3.75;;;13.70;99.90;;;;;;5056727;28;20044;-81
2022/07/23 05:55:28;;;;;;;8.13;4.55;;;13.70;99.90;;;;;;5084509;28;20121;-81
2022/07/23 05:57:58;;;;;;;7.40;4.07;;;13.80;99.90;;;;;;5050321;28;20041;-80
2022/07/23 06:00:24;;;;;;;8.73;4.13;;;13.90;99.90;;;;;;5074073;28;20630;-80
2022/07/23 06:02:49;;;;;;;8.32;3.75;;;13.90;99.90;;;;;;5072836;28;20146;-81
2022/07/23 06:05:15;;;;;;;7.55;3.40;;;13.90;99.90;;;;;;5048951;28;20053;-84
2022/07/23 06:07:41;;;;;;;9.10;3.42;;;13.90;99.90;;;;;;5051677;28;20105;-83
2022/07/23 06:10:07;;;;;;;7.50;2.97;;;14.00;99.90;;;;;;5070585;28;20518;-83
2022/07/23 06:12:33;;;;;;;7.60;3.00;;;14.00;99.90;;;;;;5057202;28;20503;-82
2022/07/23 06:14:58;;;;;;;6.53;3.50;;;14.00;99.90;;;;;;5072726;28;20089;-83
2022/07/23 06:17:24;;;;;;;8.20;3.78;;;14.00;99.90;;;;;;5062281;28;20111;-81
2022/07/23 06:19:50;;;;;;;6.00;2.60;;;14.00;99.90;;;;;;5056906;28;20037;-81
2022/07/23 06:22:16;;;;;;;6.63;3.55;;;14.10;99.90;;;;;;5071139;28;20385;-81
2022/07/23 06:24:41;;;;;;;8.63;2.97;;;14.10;99.90;;;;;;5052613;28;20043;-80
2022/07/23 06:27:07;;;;;;;5.32;3.13;;;14.20;99.90;;;;;;5047012;28;20053;-80
2022/07/23 06:29:33;;;;;;;5.43;2.88;;;14.20;99.90;;;;;;5067510;28;20143;-80
2022/07/23 06:31:58;;;;;;;7.60;3.13;;;14.40;99.90;;;;;;5063913;28;20418;-81
2022/07/23 06:34:24;;;;;;;4.95;2.63;;;14.20;99.90;;;;;;5055452;28;20116;-81
2022/07/23 06:36:50;;;;;;;6.82;2.65;;;14.30;99.90;;;;;;5066443;28;20080;-81
2022/07/23 06:39:16;;;;;;;4.55;1.98;;;14.40;99.90;;;;;;5066655;28;20055;-81
2022/07/23 06:41:41;;;;;;;8.30;2.53;;;14.60;99.90;;;;;;5073874;28;20427;-81
2022/07/23 06:44:07;;;;;;;4.93;2.05;;;14.50;99.90;;;;;;5069897;28;20044;-81
2022/07/23 06:46:33;;;;;;;8.63;2.33;;;14.60;99.90;;;;;;5060950;28;20049;-81
2022/07/23 06:48:59;;;;;;;4.78;2.03;;;14.80;99.90;;;;;;5057283;28;20400;-82
2022/07/23 06:51:24;;;;;;;7.35;2.47;;;14.70;99.90;;;;;;5068042;28;20397;-81
2022/07/23 06:53:50;;;;;;;3.85;2.08;;;14.80;99.90;;;;;;5070548;28;20101;-81
2022/07/23 06:56:16;;;;;;;6.00;1.80;;;15.00;99.90;;;;;;5069673;28;20043;-82
2022/07/23 06:58:41;;;;;;;4.60;1.55;;;15.10;99.90;;;;;;5067074;28;20036;-81
2022/07/23 07:01:07;;;;;;;5.90;1.85;;;15.60;99.90;;;;;;5060454;28;20110;-82
2022/07/23 07:03:33;;;;;;;3.10;1.52;;;15.60;99.90;;;;;;5065974;28;20043;-82
2022/07/23 07:05:58;;;;;;;3.88;1.50;;;15.80;99.90;;;;;;5070281;28;20040;-81
2022/07/23 07:08:24;;;;;;;5.05;1.70;;;15.90;99.90;;;;;;5067168;28;20040;-81
2022/07/23 07:10:49;;;;;;;4.28;1.40;;;16.00;99.90;;;;;;5072593;28;20036;-81
2022/07/23 07:13:15;;;;;;;3.05;1.58;;;16.10;99.90;;;;;;5075060;28;20053;-82
2022/07/23 07:15:41;;;;;;;8.35;1.67;;;16.30;99.90;;;;;;5058732;28;20032;-81
2022/07/23 07:18:06;;;;;;;5.45;1.38;;;16.40;99.90;;;;;;5060340;28;20106;-82
2022/07/23 07:20:32;;;;;;;6.22;1.45;;;16.50;99.90;;;;;;5075248;28;20044;-82
2022/07/23 07:22:58;;;;;;;3.42;1.33;;;16.60;99.90;;;;;;5046461;28;20043;-82
2022/07/23 07:25:23;;;;;;;3.53;1.00;;;16.70;99.90;;;;;;5068033;28;20044;-81
2022/07/23 07:27:49;;;;;;;5.82;0.70;;;16.70;99.90;;;;;;5063169;28;20060;-81
2022/07/23 07:30:15;;;;;;;2.05;0.70;;;17.00;99.90;;;;;;5077129;28;20768;-81
2022/07/23 07:32:41;;;;;;;1.83;0.50;;;17.00;99.90;;;;;;5058746;28;20072;-81
2022/07/23 07:35:07;;;;;;;2.22;0.60;;;17.30;99.90;;;;;;5035235;28;20052;-81
2022/07/23 07:37:33;;;;;;;1.77;0.70;;;17.50;99.90;;;;;;5073718;28;20040;-81
2022/07/23 07:39:58;;;;;;;3.08;0.65;;;17.80;99.90;;;;;;5067491;28;20046;-81
2022/07/23 07:42:24;;;;;;;2.13;0.55;;;18.20;99.90;;;;;;5082717;28;20058;-81
2022/07/23 07:44:49;;;;;;;3.08;0.63;;;18.60;99.90;;;;;;5063396;28;20052;-81
2022/07/23 07:47:15;;;;;;;1.27;0.40;;;19.00;99.90;;;;;;5071418;28;20049;-82
2022/07/23 07:49:44;;;;;;;1.67;0.68;;;19.10;99.90;;;;;;5044635;28;20041;-82
2022/07/23 07:52:10;;;;;;;1.77;0.60;;;19.10;99.90;;;;;;5048920;28;20040;-80
2022/07/23 07:54:36;;;;;;;4.28;0.65;;;19.00;99.90;;;;;;5052360;28;20051;-82
2022/07/23 07:57:01;;;;;;;0.98;0.30;;;18.80;99.90;;;;;;5050172;28;20037;-80
2022/07/23 07:59:27;;;;;;;1.25;0.40;;;18.80;99.90;;;;;;5071570;28;20044;-81
2022/07/23 08:01:53;;;;;;;2.08;0.40;;;18.80;99.90;;;;;;5068301;28;20044;-81
2022/07/23 08:04:19;;;;;;;1.40;0.25;;;18.60;99.90;;;;;;5066848;28;20047;-80
2022/07/23 08:06:44;;;;;;;2.20;0.32;;;18.50;99.90;;;;;;5059246;28;20045;-81
2022/07/23 08:09:10;;;;;;;2.15;0.40;;;18.40;99.90;;;;;;5047893;28;20419;-81
2022/07/23 08:11:36;;;;;;;1.48;0.30;;;18.10;99.90;;;;;;5065905;28;20071;-80
2022/07/23 08:14:01;;;;;;;5.32;0.52;;;18.30;99.90;;;;;;5068651;28;20044;-80
2022/07/23 08:16:27;;;;;;;1.40;0.43;;;18.40;99.90;;;;;;5066258;28;20055;-80
2022/07/23 08:18:52;;;;;;;1.77;0.40;;;18.70;99.90;;;;;;5066015;28;20589;-85
2022/07/23 08:21:18;;;;;;;2.05;0.40;;;18.90;99.90;;;;;;5061238;28;20045;-82
2022/07/23 08:23:44;;;;;;;1.02;0.30;;;19.10;99.90;;;;;;5067090;28;20964;-81
2022/07/23 08:26:09;;;;;;;1.42;0.32;;;18.90;99.90;;;;;;5068923;28;20044;-83
2022/07/23 08:28:38;;;;;;;0.68;0.30;;;18.80;99.90;;;;;;5057278;28;20488;-84
2022/07/23 08:31:06;;;;;;;5.00;0.57;;;18.80;99.90;;;;;;5056874;28;20089;-84
2022/07/23 08:45:44;;;;;;;1.80;0.50;;;19.20;99.90;;;;;;5009746;28;20049;-86
2022/07/23 08:48:15;;;;;;;1.35;0.32;;;19.10;99.90;;;;;;4995054;28;20053;-91
2022/07/23 08:50:49;;;;;;;0.88;0.35;;;19.00;99.90;;;;;;5012605;28;20049;-90
2022/07/23 08:53:16;;;;;;;;;;;19.10;99.90;;;;;;5002049;28;20086;-91
2022/07/23 08:55:45;;;;;;;2.80;0.40;;;19.20;99.90;;;;;;4996899;28;20356;-86
2022/07/23 08:58:10;;;;;;;1.10;0.60;;;19.40;99.90;;;;;;4992460;28;20397;-86
2022/07/23 09:00:36;;;;;;;2.05;0.40;;;19.60;99.90;;;;;;4975983;28;20042;-86
2022/07/23 09:03:02;;;;;;;0.82;0.30;;;19.80;99.90;;;;;;4984337;28;20686;-86
2022/07/23 09:05:28;;;;;;;1.63;0.60;;;20.00;99.90;;;;;;5005330;28;20528;-87
2022/07/23 09:08:16;;;;;;;1.27;0.40;;;20.20;99.90;;;;;;5012416;28;20038;-86
2022/07/23 09:10:51;;;;;;;1.48;0.40;;;20.40;99.90;;;;;;5014087;28;20175;-85
2022/07/23 09:13:40;;;;;;;1.63;0.40;;;20.50;99.90;;;;;;5009629;28;20720;-86
2022/07/23 09:16:12;;;;;;;1.98;0.40;;;20.60;99.90;;;;;;5010665;28;20049;-85
2022/07/23 09:18:40;;;;;;;3.05;0.45;;;20.50;99.90;;;;;;4993658;28;20046;-85
2022/07/23 09:21:22;;;;;;;1.45;0.40;;;20.60;99.90;;;;;;4974666;28;20042;-85
2022/07/23 09:23:54;;;;;;;3.75;0.43;;;20.60;99.90;;;;;;4985751;28;20053;-85
2022/07/23 09:26:43;;;;;;;0.75;0.30;;;20.50;99.90;;;;;;4994051;28;20042;-84
2022/07/23 09:29:18;;;;;;;1.77;0.40;;;20.60;99.90;;;;;;4994824;28;20042;-85
2022/07/23 09:31:49;;;;;;;2.20;0.40;;;20.70;99.90;;;;;;4991983;28;20103;-86
2022/07/23 09:34:17;;;;;;;2.63;0.73;;;20.70;99.90;;;;;;5010038;28;20042;-85
2022/07/23 09:36:43;;;;;;;1.55;0.50;;;20.80;99.90;;;;;;4994296;28;20049;-85
2022/07/23 09:39:10;;;;;;;2.28;0.50;;;20.70;99.90;;;;;;5010946;28;20048;-85
2022/07/23 09:41:46;;;;;;;3.38;0.50;;;20.70;99.90;;;;;;5011150;28;20088;-85
2022/07/23 09:44:18;;;;;;;3.00;0.45;;;20.80;99.90;;;;;;4957974;28;1056688;-85
2022/07/23 09:46:48;;;;;;;1.70;0.60;;;20.80;99.90;;;;;;4994564;28;20062;-85
2022/07/23 09:49:23;;;;;;;2.67;0.50;;;20.90;99.90;;;;;;4993675;28;20133;-85
2022/07/23 09:51:57;;;;;;;2.90;0.43;;;20.80;99.90;;;;;;5010993;28;20042;-85
2022/07/23 09:54:33;;;;;;;2.35;0.40;;;20.70;99.90;;;;;;4994947;28;20062;-85
2022/07/23 09:57:01;;;;;;;3.75;0.55;;;20.90;99.90;;;;;;4994560;28;20062;-86
2022/07/23 09:59:30;;;;;;;1.55;0.50;;;21.00;99.90;;;;;;4993735;28;20073;-85
2022/07/23 10:01:59;;;;;;;1.85;0.55;;;21.00;99.90;;;;;;4994563;28;20046;-85
2022/07/23 10:04:27;;;;;;;1.45;0.40;;;21.20;99.90;;;;;;4992823;28;20045;-85
2022/07/23 10:06:55;;;;;;;2.78;0.60;;;21.40;99.90;;;;;;5012490;28;20057;-85
2022/07/23 10:09:32;;;;;;;2.22;0.50;;;21.50;99.90;;;;;;4993863;28;20041;-85
2022/07/23 10:14:32;;;;;;;2.33;0.60;;;21.50;99.90;;;;;;4993581;28;20081;-85
2022/07/23 10:16:58;;;;;;;1.75;0.57;;;21.50;99.90;;;;;;5017124;28;20682;-85
2022/07/23 10:19:24;;;;;;;3.78;0.65;;;21.50;99.90;;;;;;5000628;28;22069;-84
2022/07/23 10:21:54;;;;;;;4.13;0.73;;;21.50;99.90;;;;;;4990141;28;20121;-86
2022/07/23 10:24:36;;;;;;;1.58;0.50;;;21.30;99.90;;;;;;4987314;28;20041;-85
2022/07/23 10:27:38;;;;;;;3.33;0.50;;;21.40;99.90;;;;;;5000308;28;20512;-85
2022/07/23 10:30:18;;;;;;;4.05;0.80;;;21.40;99.90;;;;;;4997360;28;20061;-86
2022/07/23 10:33:00;;;;;;;1.58;0.50;;;21.30;99.90;;;;;;5000292;28;20050;-85
2022/07/23 10:35:47;;;;;;;2.30;0.70;;;21.20;99.90;;;;;;5017709;28;20041;-85
2022/07/23 10:38:25;;;;;;;1.77;0.60;;;21.20;99.90;;;;;;5009670;28;20136;-86
2022/07/23 10:40:57;;;;;;;1.77;0.60;;;21.10;99.90;;;;;;5011762;28;20046;-83
2022/07/23 10:43:23;;;;;;;3.58;0.65;;;21.20;99.90;;;;;;5012165;28;20108;-86
2022/07/23 10:45:52;;;;;;;3.67;0.60;;;21.10;99.90;;;;;;4990289;28;20046;-93
2022/07/23 10:48:29;;;;;;;2.72;0.68;;;21.10;99.90;;;;;;4998534;28;20502;-94
2022/07/23 10:51:19;;;;;;;4.78;0.70;;;21.00;99.90;;;;;;5014472;28;20041;-92
2022/07/23 10:53:51;;;;;;;3.03;0.65;;;20.90;99.90;;;;;;4994495;28;20502;-91
2022/07/23 10:57:05;;;;;;;3.47;0.40;;;20.90;99.90;;;;;;5019183;28;20072;-91
2022/07/23 10:59:31;;;;;;;1.52;0.50;;;20.80;99.90;;;;;;5003497;28;20052;-89
2022/07/23 11:02:23;;;;;;;3.33;0.65;;;20.70;99.90;;;;;;4993298;28;20046;-96
2022/07/23 11:04:52;;;;;;;;;;;20.70;99.90;;;;;;5013902;28;20489;-93
2022/07/23 11:07:18;;;;;;;1.60;0.50;;;20.80;99.90;;;;;;5023516;28;19951;-86
2022/07/23 11:09:46;;;;;;;2.58;0.60;;;20.90;99.90;;;;;;5011017;28;20049;-87
2022/07/23 11:12:21;;;;;;;3.85;0.77;;;21.20;99.90;;;;;;5006111;28;20049;-87
2022/07/23 11:15:04;;;;;;;3.70;0.60;;;21.00;99.90;;;;;;5032260;28;20451;-86
2022/07/23 11:17:51;;;;;;;2.55;0.80;;;21.10;99.90;;;;;;4994737;28;20430;-93
2022/07/23 11:20:20;;;;;;;2.38;0.60;;;21.10;99.90;;;;;;4995956;28;20054;-95
2022/07/23 11:22:47;;;;;;;1.85;0.63;;;21.10;99.90;;;;;;5017311;28;20034;-93
2022/07/23 11:25:21;;;;;;;2.95;0.55;;;21.60;99.90;;;;;;5013663;28;20050;-93
2022/07/23 11:27:48;;;;;;;4.40;0.80;;;21.10;99.90;;;;;;5013037;28;20049;-93
2022/07/23 11:30:26;;;;;;;3.67;0.57;;;21.10;99.90;;;;;;4997453;28;20053;-94
2022/07/23 11:32:53;;;;;;;2.30;0.70;;;21.50;99.90;;;;;;5029821;28;20049;-95
2022/07/23 11:35:25;;;;;;;3.15;0.60;;;21.30;99.90;;;;;;5021458;28;20050;-95
2022/07/23 11:37:58;;;;;;;1.75;0.68;;;21.50;99.90;;;;;;4996696;28;20054;-93
2022/07/23 11:40:25;;;;;;;2.55;0.60;;;21.90;99.90;;;;;;4988949;28;20133;-91
2022/07/23 11:42:54;;;;;;;1.38;0.60;;;22.10;99.90;;;;;;5012653;28;20080;-92
2022/07/23 11:45:19;;;;;;;4.13;1.00;;;21.60;99.90;;;;;;5013953;28;20054;-90
2022/07/23 11:47:45;;;;;;;5.10;0.80;;;22.00;99.90;;;;;;5007737;28;20050;-93
2022/07/23 11:50:11;;;;;;;5.53;0.88;;;21.80;99.90;;;;;;5012494;28;20061;-89
2022/07/23 11:52:36;;;;;;;2.38;0.73;;;21.60;99.90;;;;;;5009940;28;20042;-90
2022/07/23 11:55:10;;;;;;;2.28;0.70;;;22.00;99.90;;;;;;5012165;28;20068;-92
2022/07/23 11:57:40;;;;;;;2.13;0.70;;;21.90;99.90;;;;;;5003511;28;20469;-92
2022/07/23 12:00:10;;;;;;;3.55;1.08;;;22.00;99.90;;;;;;5018842;28;20044;-90
2022/07/23 12:02:40;;;;;;;5.85;0.80;;;22.10;99.90;;;;;;5021388;28;20497;-90
2022/07/23 12:05:06;;;;;;;2.10;0.70;;;22.10;99.90;;;;;;4998639;28;20507;-88
2022/07/23 12:07:38;;;;;;;2.30;0.70;;;21.90;99.90;;;;;;5013194;28;20053;-86
2022/07/23 12:10:10;;;;;;;3.67;1.10;;;21.70;99.90;;;;;;5016512;28;20053;-87
2022/07/23 12:12:41;;;;;;;2.65;0.90;;;21.70;99.90;;;;;;5007958;28;20121;-86
2022/07/23 12:15:08;;;;;;;5.15;0.88;;;21.70;99.90;;;;;;4994707;28;20859;-87
2022/07/23 12:17:37;;;;;;;2.70;0.93;;;21.70;99.90;;;;;;5022152;28;20064;-88
2022/07/23 12:20:06;;;;;;;4.03;1.00;;;21.80;99.90;;;;;;4995835;28;20050;-91
2022/07/23 12:22:49;;;;;;;3.25;0.95;;;21.80;99.90;;;;;;5004258;28;20068;-87
2022/07/23 12:25:20;;;;;;;4.50;1.00;;;22.00;99.90;;;;;;5015657;28;20056;-86
2022/07/23 12:27:57;;;;;;;9.73;1.10;;;21.90;99.90;;;;;;5001277;28;20112;-86
2022/07/23 12:30:23;;;;;;;4.10;0.80;;;21.90;99.90;;;;;;5006997;28;20112;-85
2022/07/23 12:32:52;;;;;;;2.90;0.73;;;22.40;99.90;;;;;;5010706;28;20389;-87
2022/07/23 12:35:18;;;;;;;1.42;0.63;;;22.90;99.90;;;;;;5014867;28;20066;-88
2022/07/23 12:37:52;;;;;;;3.92;0.93;;;22.10;99.90;;;;;;4999331;28;20045;-82
2022/07/23 12:40:23;;;;;;;4.75;0.90;;;22.20;99.90;;;;;;5013350;28;20065;-90
2022/07/23 12:42:55;;;;;;;3.20;0.70;;;22.40;99.90;;;;;;4995638;28;20045;-87
2022/07/23 12:45:20;;;;;;;2.58;0.93;;;22.50;99.90;;;;;;4997802;28;20510;-91
2022/07/23 12:48:23;;;;;;;4.75;0.90;;;22.60;99.90;;;;;;5009642;28;20128;-89
2022/07/23 12:50:52;;;;;;;3.60;1.20;;;22.70;99.90;;;;;;4978926;28;20061;-90
2022/07/23 12:53:22;;;;;;;3.88;0.93;;;22.80;99.90;;;;;;4997518;28;20419;-90
2022/07/23 12:55:48;;;;;;;3.10;0.73;;;22.80;99.90;;;;;;5010899;28;20073;-90
2022/07/23 12:58:19;;;;;;;2.20;0.82;;;22.70;99.90;;;;;;5024231;28;20053;-90
2022/07/23 13:01:00;;;;;;;2.70;0.90;;;22.50;99.90;;;;;;5026229;28;20075;-92
2022/07/23 13:03:32;;;;;;;2.45;0.70;;;22.40;99.90;;;;;;5010403;28;20136;-91
2022/07/23 13:05:59;;;;;;;3.78;1.00;;;22.40;99.90;;;;;;5002299;28;20124;-90
2022/07/23 13:08:26;;;;;;;3.40;1.00;;;22.20;99.90;;;;;;5012703;28;20038;-91